Time;durP1;ratioP1;P1;durP2;ratioP2;P2;SDS_P1;SDS_P2;PMS_P1;PMS_P2;Temp;Humidity;BMP_temperature;BMP_pressure;BME280_temperature;BME280_humidity;BME280_pressure;Samples;Min_cycle;Max_cycle;Signal;HPM_P1;HPM_P2
2023/06/20 00:01:54;;;;;;;4.03;2.05;;;24.80;91.30;;;;;;7383488;19;20346;-78
2023/06/20 00:04:23;;;;;;;7.22;1.77;;;24.80;91.30;;;;;;7384883;19;20002;-77
2023/06/20 00:06:52;;;;;;;3.10;1.80;;;24.80;91.30;;;;;;7383795;19;19999;-78
2023/06/20 00:09:21;;;;;;;6.78;1.70;;;24.80;91.30;;;;;;7407299;19;20027;-78
2023/06/20 00:11:52;;;;;;;8.63;2.15;;;24.80;91.30;;;;;;7385065;19;20232;-79
2023/06/20 00:14:20;;;;;;;8.23;1.80;;;24.70;91.40;;;;;;7384391;19;20006;-78
2023/06/20 00:16:59;;;;;;;3.88;1.95;;;24.70;91.50;;;;;;7387938;19;20018;-78
2023/06/20 00:19:28;;;;;;;5.20;2.00;;;24.70;91.50;;;;;;7388533;19;20026;-78
2023/06/20 00:21:56;;;;;;;8.93;2.15;;;24.70;91.70;;;;;;7393133;19;20354;-78
2023/06/20 00:24:25;;;;;;;5.00;1.70;;;24.60;91.80;;;;;;7389176;19;20006;-78
2023/06/20 00:26:56;;;;;;;8.68;1.80;;;24.60;91.80;;;;;;7414369;19;20010;-78
2023/06/20 00:29:24;;;;;;;7.70;2.23;;;24.60;91.80;;;;;;7392072;19;20009;-77
2023/06/20 00:31:56;;;;;;;2.97;1.60;;;24.60;91.90;;;;;;7392486;19;20429;-78
2023/06/20 00:34:25;;;;;;;8.70;2.42;;;24.60;92.00;;;;;;7394514;19;20007;-77
2023/06/20 00:36:54;;;;;;;5.25;1.80;;;24.60;92.00;;;;;;7388849;19;20085;-77
2023/06/20 00:39:22;;;;;;;4.15;2.25;;;24.50;92.20;;;;;;7394544;19;20070;-77
2023/06/20 00:41:51;;;;;;;12.00;2.17;;;24.50;92.00;;;;;;7409753;19;20020;-78
2023/06/20 00:44:21;;;;;;;5.45;2.20;;;24.50;91.90;;;;;;7390537;19;19999;-79
2023/06/20 00:46:50;;;;;;;6.70;2.05;;;24.50;92.00;;;;;;7384450;19;20281;-77
2023/06/20 00:49:21;;;;;;;3.83;1.92;;;24.50;92.00;;;;;;7388825;19;20006;-79
2023/06/20 00:51:54;;;;;;;15.23;2.22;;;24.40;92.00;;;;;;7390540;19;20103;-78
2023/06/20 00:54:23;;;;;;;13.40;2.40;;;24.40;92.10;;;;;;7390634;19;20044;-77
2023/06/20 00:56:52;;;;;;;3.97;2.08;;;24.40;92.10;;;;;;7410213;19;20006;-78
2023/06/20 00:59:21;;;;;;;13.35;2.45;;;24.40;92.10;;;;;;7394124;19;20023;-78
2023/06/20 01:01:49;;;;;;;10.30;2.80;;;24.40;92.10;;;;;;7387959;19;20015;-77
2023/06/20 01:04:21;;;;;;;8.07;2.30;;;24.40;92.10;;;;;;7388403;19;20003;-78
2023/06/20 01:06:59;;;;;;;12.07;2.28;;;24.40;92.10;;;;;;7385555;19;20011;-78
2023/06/20 01:09:38;;;;;;;5.68;2.25;;;24.40;92.10;;;;;;7385649;19;20002;-78
2023/06/20 01:12:15;;;;;;;9.13;2.05;;;24.40;92.10;;;;;;7404402;19;20386;-77
2023/06/20 01:14:52;;;;;;;9.40;2.53;;;24.40;92.10;;;;;;7381607;19;20062;-78
2023/06/20 01:17:26;;;;;;;7.70;2.78;;;24.40;92.20;;;;;;7386883;19;20002;-78
2023/06/20 01:20:08;;;;;;;6.28;2.40;;;24.40;92.30;;;;;;7384942;19;20029;-78
2023/06/20 01:22:57;;;;;;;10.38;2.13;;;24.40;92.30;;;;;;7385032;19;20007;-78
2023/06/20 01:25:36;;;;;;;6.88;2.40;;;24.40;92.20;;;;;;7387844;19;20010;-78
2023/06/20 01:28:13;;;;;;;10.10;2.15;;;24.40;92.30;;;;;;7387700;19;20071;-78
2023/06/20 01:30:49;;;;;;;6.18;2.30;;;24.40;92.20;;;;;;7386950;19;20020;-77
2023/06/20 01:33:20;;;;;;;11.23;2.75;;;24.40;92.30;;;;;;7410677;19;20023;-77
2023/06/20 01:35:50;;;;;;;;;;;24.40;92.40;;;;;;7389782;19;20394;-78
2023/06/20 01:38:25;;;;;;;13.52;2.30;;;24.40;92.40;;;;;;7386673;19;19914;-77
2023/06/20 01:40:54;;;;;;;12.73;2.33;;;24.40;92.30;;;;;;7384336;19;20006;-77
2023/06/20 01:43:24;;;;;;;9.55;2.53;;;24.40;92.30;;;;;;7384851;19;20006;-78
2023/06/20 01:45:54;;;;;;;11.43;2.75;;;24.40;92.30;;;;;;7384389;19;20003;-78
2023/06/20 01:48:26;;;;;;;7.10;2.88;;;24.40;92.40;;;;;;7387165;19;20358;-78
2023/06/20 01:50:56;;;;;;;14.13;2.67;;;24.40;92.40;;;;;;7406196;19;20235;-78
2023/06/20 01:53:30;;;;;;;8.68;2.35;;;24.40;92.30;;;;;;7387842;19;20019;-78
2023/06/20 01:56:01;;;;;;;15.23;2.78;;;24.40;92.40;;;;;;7391677;19;20028;-77
2023/06/20 01:58:31;;;;;;;12.10;2.35;;;24.40;92.40;;;;;;7397203;19;20431;-77
2023/06/20 02:01:01;;;;;;;8.13;2.75;;;24.50;92.40;;;;;;7389647;19;20778;-78
2023/06/20 02:03:32;;;;;;;9.95;3.08;;;24.50;92.40;;;;;;7387905;19;20010;-78
2023/06/20 02:06:03;;;;;;;14.27;3.08;;;24.50;92.50;;;;;;7412909;19;20015;-78
2023/06/20 02:08:35;;;;;;;10.80;3.00;;;24.50;92.50;;;;;;7389559;19;20066;-78
2023/06/20 02:11:05;;;;;;;14.05;2.83;;;24.50;92.50;;;;;;7384718;19;20016;-79
2023/06/20 02:13:35;;;;;;;8.70;3.17;;;24.50;92.50;;;;;;7384709;19;20006;-79
2023/06/20 02:16:07;;;;;;;12.20;3.83;;;24.50;92.50;;;;;;7385602;19;20014;-78
2023/06/20 02:18:36;;;;;;;10.73;3.50;;;24.50;92.50;;;;;;7385337;19;20006;-78
2023/06/20 02:21:08;;;;;;;18.92;3.55;;;24.50;92.50;;;;;;7408085;19;20055;-78
2023/06/20 02:23:42;;;;;;;11.43;4.25;;;24.60;92.60;;;;;;7387207;19;20015;-78
2023/06/20 02:26:17;;;;;;;14.38;4.47;;;24.60;92.60;;;;;;7387474;19;20011;-78
2023/06/20 02:28:50;;;;;;;21.88;4.05;;;24.60;92.60;;;;;;7388109;19;20007;-78
2023/06/20 02:31:21;;;;;;;12.23;3.88;;;24.50;92.60;;;;;;7385487;19;20284;-78
2023/06/20 02:33:54;;;;;;;15.60;3.70;;;24.60;92.60;;;;;;7383003;19;20007;-78
2023/06/20 02:36:27;;;;;;;12.75;3.58;;;24.50;92.60;;;;;;7393520;19;20022;-77
2023/06/20 02:38:59;;;;;;;16.50;4.55;;;24.50;92.70;;;;;;7405084;19;20062;-79
2023/06/20 02:41:28;;;;;;;16.05;4.47;;;24.50;92.80;;;;;;7385609;19;20315;-78
2023/06/20 02:43:57;;;;;;;19.17;5.45;;;24.50;92.80;;;;;;7383485;19;20130;-78
2023/06/20 02:46:33;;;;;;;17.73;4.63;;;24.50;92.80;;;;;;7383791;19;20019;-78
2023/06/20 02:49:13;;;;;;;20.42;4.97;;;24.40;92.80;;;;;;7384388;19;20086;-78
2023/06/20 02:51:50;;;;;;;20.15;5.30;;;24.50;92.90;;;;;;7382772;19;20363;-77
2023/06/20 02:54:25;;;;;;;21.80;4.82;;;24.50;92.90;;;;;;7403226;19;20361;-77
2023/06/20 02:56:57;;;;;;;18.55;4.97;;;24.50;93.00;;;;;;7381104;19;20070;-78
2023/06/20 02:59:29;;;;;;;24.85;5.60;;;24.40;92.90;;;;;;7380002;19;20010;-77
2023/06/20 03:02:00;;;;;;;17.83;5.93;;;24.40;92.90;;;;;;7380559;19;20006;-78
2023/06/20 03:04:34;;;;;;;20.23;6.00;;;24.40;92.90;;;;;;7382250;19;20008;-77
2023/06/20 03:07:05;;;;;;;21.75;6.32;;;24.40;92.90;;;;;;7381088;19;20006;-78
2023/06/20 03:09:38;;;;;;;;;;;24.40;92.90;;;;;;7381506;19;20003;-78
2023/06/20 03:12:08;;;;;;;26.00;5.95;;;24.40;92.90;;;;;;7403944;19;19903;-78
2023/06/20 03:14:37;;;;;;;18.88;5.53;;;24.40;92.90;;;;;;7383189;19;20011;-78
2023/06/20 03:17:06;;;;;;;22.23;6.22;;;24.30;93.00;;;;;;7384420;19;20039;-77
2023/06/20 03:19:35;;;;;;;21.80;5.68;;;24.30;93.00;;;;;;7383738;19;20002;-78
2023/06/20 03:22:04;;;;;;;19.83;5.50;;;24.30;93.10;;;;;;7381989;19;20377;-78
2023/06/20 03:24:35;;;;;;;17.73;5.30;;;24.30;93.10;;;;;;7381893;19;20010;-78
2023/06/20 03:27:04;;;;;;;17.20;5.43;;;24.30;93.10;;;;;;7403875;19;20012;-78
2023/06/20 03:29:33;;;;;;;23.70;5.30;;;24.30;93.10;;;;;;7383642;19;20003;-78
2023/06/20 03:32:01;;;;;;;13.15;5.18;;;24.30;93.00;;;;;;7383790;19;20006;-78
2023/06/20 03:34:30;;;;;;;19.90;5.32;;;24.30;93.10;;;;;;7384250;19;20014;-78
2023/06/20 03:36:59;;;;;;;16.17;5.63;;;24.20;93.10;;;;;;7388339;19;20014;-78
2023/06/20 03:39:27;;;;;;;27.20;6.03;;;24.20;93.10;;;;;;7388821;19;20018;-78
2023/06/20 03:41:59;;;;;;;25.10;5.72;;;24.20;93.50;;;;;;7407697;19;20002;-78
2023/06/20 03:44:27;;;;;;;;;;;24.30;93.20;;;;;;7381456;19;20291;-77
2023/06/20 03:46:56;;;;;;;16.17;4.90;;;24.30;93.10;;;;;;7379731;19;19914;-77
2023/06/20 03:49:25;;;;;;;17.42;5.38;;;24.20;93.50;;;;;;7379784;19;20005;-77
2023/06/20 03:51:53;;;;;;;17.15;5.63;;;24.20;93.20;;;;;;7378905;19;20014;-77
2023/06/20 03:54:22;;;;;;;19.98;4.80;;;24.20;93.20;;;;;;7392551;19;20248;-78
2023/06/20 03:56:51;;;;;;;16.30;5.18;;;24.20;93.20;;;;;;7399711;19;20007;-78
2023/06/20 03:59:23;;;;;;;16.60;4.43;;;24.20;93.10;;;;;;7379358;19;20063;-77
2023/06/20 04:01:52;;;;;;;;;;;24.20;93.10;;;;;;7378845;19;20011;-77
2023/06/20 04:04:22;;;;;;;18.48;4.50;;;24.30;93.20;;;;;;7380431;19;19907;-77
2023/06/20 04:06:51;;;;;;;13.80;4.90;;;24.30;93.10;;;;;;7379977;19;20007;-77
2023/06/20 04:09:25;;;;;;;18.40;6.15;;;24.30;93.20;;;;;;7400850;19;20058;-77
2023/06/20 04:11:54;;;;;;;26.88;7.40;;;24.30;93.20;;;;;;7380055;19;20009;-77
2023/06/20 04:14:25;;;;;;;15.10;5.18;;;24.30;93.20;;;;;;7378370;19;20084;-77
2023/06/20 04:16:54;;;;;;;;;;;24.30;93.20;;;;;;7378567;19;20027;-77
2023/06/20 04:19:23;;;;;;;20.55;5.03;;;24.30;93.10;;;;;;7380850;19;19911;-77
2023/06/20 04:21:52;;;;;;;18.80;4.68;;;24.30;93.10;;;;;;7381268;19;20029;-77
2023/06/20 04:24:21;;;;;;;18.65;5.15;;;24.30;93.10;;;;;;7404200;19;20010;-78
2023/06/20 04:26:49;;;;;;;16.60;4.30;;;24.30;93.10;;;;;;7392132;19;20014;-78
2023/06/20 04:29:18;;;;;;;12.65;4.65;;;24.30;93.10;;;;;;7380676;19;20003;-77
2023/06/20 04:31:52;;;;;;;14.98;4.22;;;24.30;93.10;;;;;;7380114;19;20007;-77
2023/06/20 04:34:24;;;;;;;10.02;4.75;;;24.30;93.10;;;;;;7380011;19;20022;-78
2023/06/20 04:36:53;;;;;;;24.80;5.72;;;24.30;93.10;;;;;;7381949;19;20259;-78
2023/06/20 04:39:22;;;;;;;15.30;4.72;;;24.30;93.10;;;;;;7395386;19;20006;-78
2023/06/20 04:41:51;;;;;;;15.02;4.60;;;24.30;93.10;;;;;;7403491;19;20245;-78
2023/06/20 04:44:19;;;;;;;13.70;5.13;;;24.30;93.20;;;;;;7386775;19;19999;-78
2023/06/20 04:46:55;;;;;;;12.75;4.50;;;24.30;93.10;;;;;;7387789;19;20016;-77
2023/06/20 04:49:24;;;;;;;19.10;4.70;;;24.30;93.10;;;;;;7389216;19;20308;-79
2023/06/20 04:51:52;;;;;;;10.50;4.70;;;24.40;93.10;;;;;;7384407;19;20583;-77
2023/06/20 04:54:21;;;;;;;22.23;5.07;;;24.40;93.10;;;;;;7405693;19;20003;-79
2023/06/20 04:56:50;;;;;;;15.60;4.20;;;24.30;93.10;;;;;;7384752;19;20023;-79
2023/06/20 04:59:19;;;;;;;12.90;4.82;;;24.40;93.20;;;;;;7382250;19;20265;-77
2023/06/20 05:01:51;;;;;;;13.90;4.90;;;24.40;93.10;;;;;;7383222;19;20040;-77
2023/06/20 05:04:20;;;;;;;13.32;4.90;;;24.40;93.10;;;;;;7383358;19;20023;-78
2023/06/20 05:06:49;;;;;;;7.75;4.28;;;24.40;93.10;;;;;;7385905;19;20011;-78
2023/06/20 05:09:17;;;;;;;6.38;3.70;;;24.40;93.10;;;;;;7417530;19;20051;-77
2023/06/20 05:11:46;;;;;;;12.43;4.70;;;24.40;93.00;;;;;;7388432;19;20062;-77
2023/06/20 05:14:15;;;;;;;13.88;4.43;;;24.50;93.00;;;;;;7385834;19;20355;-77
2023/06/20 05:16:43;;;;;;;15.32;4.80;;;24.50;93.00;;;;;;7388849;19;20355;-77
2023/06/20 05:19:15;;;;;;;11.75;4.22;;;24.50;93.00;;;;;;7384321;19;20078;-78
2023/06/20 05:21:44;;;;;;;13.15;4.35;;;24.50;93.00;;;;;;7383522;19;20031;-77
2023/06/20 05:24:13;;;;;;;20.55;4.75;;;24.50;92.90;;;;;;7404997;19;20010;-77
2023/06/20 05:26:42;;;;;;;13.57;4.53;;;24.50;92.80;;;;;;7386182;19;20006;-77
2023/06/20 05:29:11;;;;;;;15.98;4.60;;;24.60;92.80;;;;;;7386125;19;20015;-78
2023/06/20 05:31:42;;;;;;;18.30;4.80;;;24.60;92.80;;;;;;7384295;19;20015;-77
2023/06/20 05:34:14;;;;;;;24.42;4.38;;;24.70;92.70;;;;;;7382439;19;20038;-77
2023/06/20 05:36:43;;;;;;;17.85;5.50;;;24.70;92.60;;;;;;7382450;19;20003;-77
2023/06/20 05:39:12;;;;;;;17.08;5.15;;;24.70;92.50;;;;;;7405591;19;20039;-77
2023/06/20 05:41:41;;;;;;;11.73;4.22;;;24.80;92.40;;;;;;7382907;19;20003;-76
2023/06/20 05:44:10;;;;;;;16.15;4.20;;;24.90;92.40;;;;;;7383386;19;20023;-77
2023/06/20 05:46:39;;;;;;;11.40;4.60;;;24.90;92.30;;;;;;7382922;19;20003;-77
2023/06/20 05:49:10;;;;;;;17.65;4.95;;;24.90;92.20;;;;;;7384498;19;20031;-77
2023/06/20 05:51:44;;;;;;;16.67;4.85;;;24.90;92.00;;;;;;7383819;19;20010;-77
2023/06/20 05:54:13;;;;;;;16.88;5.05;;;25.00;92.00;;;;;;7406287;19;20082;-77
2023/06/20 05:56:42;;;;;;;18.95;5.07;;;25.00;91.90;;;;;;7382345;19;20371;-77
2023/06/20 05:59:11;;;;;;;20.92;5.00;;;25.10;91.90;;;;;;7381903;19;20003;-77
2023/06/20 06:01:40;;;;;;;18.70;5.35;;;25.10;91.80;;;;;;7382476;19;20027;-78
2023/06/20 06:04:08;;;;;;;15.55;5.25;;;25.10;91.70;;;;;;7381621;19;20003;-77
2023/06/20 06:06:37;;;;;;;21.52;4.68;;;25.10;91.70;;;;;;7383034;19;20027;-77
2023/06/20 06:09:09;;;;;;;21.63;5.47;;;25.10;91.60;;;;;;7404636;19;20010;-77
2023/06/20 06:11:38;;;;;;;17.25;5.32;;;25.20;91.70;;;;;;7382463;19;20072;-77
2023/06/20 06:14:07;;;;;;;18.48;5.63;;;25.20;91.60;;;;;;7382899;19;20021;-77
2023/06/20 06:16:36;;;;;;;21.25;5.43;;;25.30;91.60;;;;;;7383334;19;20007;-77
2023/06/20 06:19:04;;;;;;;16.90;5.70;;;25.30;91.60;;;;;;7382839;19;20027;-77
2023/06/20 06:21:33;;;;;;;21.65;5.43;;;25.40;91.50;;;;;;7383371;19;20018;-77
2023/06/20 06:24:02;;;;;;;36.10;5.50;;;25.50;91.40;;;;;;7402293;19;20019;-78
2023/06/20 06:26:35;;;;;;;21.83;5.63;;;25.50;91.30;;;;;;7381731;19;20007;-77
2023/06/20 06:29:04;;;;;;;17.15;5.55;;;25.60;91.20;;;;;;7385217;19;20010;-78
2023/06/20 06:31:37;;;;;;;21.13;5.53;;;25.70;91.10;;;;;;7383763;19;20011;-78
2023/06/20 06:34:07;;;;;;;14.05;5.60;;;25.70;90.80;;;;;;7381532;19;20007;-77
2023/06/20 06:36:36;;;;;;;27.30;5.75;;;25.70;90.60;;;;;;7380576;19;20023;-77
2023/06/20 06:39:07;;;;;;;18.80;5.22;;;25.70;90.60;;;;;;7401150;19;20022;-77
2023/06/20 06:41:39;;;;;;;19.45;5.78;;;25.70;90.60;;;;;;7382015;19;20079;-77
2023/06/20 06:44:08;;;;;;;24.05;6.20;;;25.80;90.70;;;;;;7382275;19;20003;-77
2023/06/20 06:46:37;;;;;;;21.20;5.95;;;25.80;90.70;;;;;;7381646;19;20023;-76
2023/06/20 06:49:05;;;;;;;18.25;5.28;;;25.90;90.50;;;;;;7383015;19;20371;-77
2023/06/20 06:51:34;;;;;;;20.25;5.93;;;25.90;90.60;;;;;;7384965;19;20342;-77
2023/06/20 06:54:03;;;;;;;26.77;6.30;;;25.90;90.60;;;;;;7416738;19;20007;-77
2023/06/20 06:56:31;;;;;;;26.20;5.60;;;25.90;90.60;;;;;;7394426;19;20011;-78
2023/06/20 06:59:03;;;;;;;23.27;6.07;;;26.00;90.70;;;;;;7389877;19;20011;-78
2023/06/20 07:01:33;;;;;;;16.38;5.93;;;26.00;90.60;;;;;;7395083;19;19999;-77
2023/06/20 07:04:01;;;;;;;21.13;5.63;;;26.10;90.60;;;;;;7390610;19;20011;-79
2023/06/20 07:06:30;;;;;;;19.33;6.10;;;26.10;90.50;;;;;;7384740;19;20280;-77
2023/06/20 07:09:00;;;;;;;22.10;6.45;;;26.00;90.20;;;;;;7403225;19;20054;-75
2023/06/20 07:11:28;;;;;;;18.75;6.43;;;26.10;90.20;;;;;;7381844;19;20030;-75
2023/06/20 07:13:57;;;;;;;15.35;6.80;;;26.00;89.80;;;;;;7382273;19;20023;-75
2023/06/20 07:16:31;;;;;;;16.70;5.57;;;26.00;89.90;;;;;;7385724;19;20027;-77
2023/06/20 07:19:00;;;;;;;54.70;32.42;;;25.90;90.00;;;;;;7382967;19;20392;-75
2023/06/20 07:21:29;;;;;;;47.92;26.08;;;26.00;90.00;;;;;;7380368;19;20014;-76
2023/06/20 07:23:57;;;;;;;66.95;37.05;;;25.90;89.80;;;;;;7400390;19;20062;-72
2023/06/20 07:26:26;;;;;;;21.27;11.15;;;25.90;89.90;;;;;;7379925;19;20007;-75
2023/06/20 07:28:55;;;;;;;46.10;19.05;;;25.90;89.90;;;;;;7379755;19;20002;-75
2023/06/20 07:31:24;;;;;;;21.45;9.82;;;25.90;89.90;;;;;;7380703;19;20034;-76
2023/06/20 07:33:55;;;;;;;22.50;8.25;;;25.90;90.00;;;;;;7378962;19;20068;-76
2023/06/20 07:36:23;;;;;;;21.67;9.00;;;25.90;90.00;;;;;;7379621;19;20014;-74
2023/06/20 07:38:52;;;;;;;17.75;7.30;;;25.90;90.00;;;;;;7400433;19;20079;-74
2023/06/20 07:41:21;;;;;;;21.65;7.13;;;25.90;90.10;;;;;;7378671;19;20014;-73
2023/06/20 07:43:49;;;;;;;23.60;7.13;;;25.90;90.10;;;;;;7377953;19;20296;-73
2023/06/20 07:46:18;;;;;;;20.42;6.85;;;25.90;90.10;;;;;;7379203;19;20083;-75
2023/06/20 07:48:48;;;;;;;13.77;6.30;;;26.00;90.10;;;;;;7377961;19;20010;-75
2023/06/20 07:51:20;;;;;;;17.35;6.97;;;26.10;90.10;;;;;;7400898;19;20011;-75
2023/06/20 07:53:49;;;;;;;19.73;7.03;;;26.10;89.00;;;;;;7378378;19;20012;-73
2023/06/20 07:56:18;;;;;;;17.85;6.63;;;26.20;89.30;;;;;;7379251;19;20007;-73
2023/06/20 07:58:47;;;;;;;24.58;7.30;;;26.20;89.10;;;;;;7378547;19;20402;-73
2023/06/20 08:01:16;;;;;;;13.63;6.60;;;26.30;88.30;;;;;;7378510;19;20271;-73
2023/06/20 08:03:44;;;;;;;23.10;6.68;;;26.30;88.50;;;;;;7377323;19;20078;-73
2023/06/20 08:06:13;;;;;;;20.83;7.47;;;26.30;88.70;;;;;;7400686;19;20066;-74
2023/06/20 08:08:44;;;;;;;14.52;6.65;;;26.20;88.10;;;;;;7377882;19;20028;-72
2023/06/20 08:11:13;;;;;;;;;;;26.20;87.80;;;;;;7378903;19;20022;-74
2023/06/20 08:13:41;;;;;;;15.70;6.80;;;26.30;88.00;;;;;;7377749;19;19927;-71
2023/06/20 08:16:10;;;;;;;14.00;7.18;;;26.40;87.70;;;;;;7378510;19;20007;-73
2023/06/20 08:18:39;;;;;;;17.42;7.35;;;26.30;87.80;;;;;;7378098;19;20023;-72
2023/06/20 08:21:07;;;;;;;16.45;7.25;;;26.30;88.10;;;;;;7397615;19;20006;-76
2023/06/20 08:23:36;;;;;;;13.93;6.65;;;26.30;87.70;;;;;;7376400;19;20023;-75
2023/06/20 08:26:08;;;;;;;15.65;7.35;;;26.40;88.20;;;;;;7378062;19;20002;-73
2023/06/20 08:28:36;;;;;;;31.90;19.77;;;26.30;88.30;;;;;;7379704;19;20031;-76
2023/06/20 08:31:08;;;;;;;23.75;10.45;;;26.40;88.80;;;;;;7380061;19;20056;-75
2023/06/20 08:33:36;;;;;;;17.92;7.10;;;26.30;88.40;;;;;;7379281;19;20006;-75
2023/06/20 08:36:05;;;;;;;19.58;8.10;;;26.30;88.80;;;;;;7400677;19;20066;-75
2023/06/20 08:38:34;;;;;;;18.60;8.57;;;26.30;89.00;;;;;;7378510;19;20011;-75
2023/06/20 08:41:03;;;;;;;16.98;7.53;;;26.20;89.40;;;;;;7378999;19;20075;-75
2023/06/20 08:43:36;;;;;;;19.77;8.20;;;26.20;89.50;;;;;;7383872;19;20006;-76
2023/06/20 08:46:05;;;;;;;15.73;8.05;;;26.30;89.90;;;;;;7386587;19;20058;-75
2023/06/20 08:48:34;;;;;;;21.00;7.32;;;26.40;90.00;;;;;;7387193;19;20252;-73
2023/06/20 08:51:04;;;;;;;19.15;8.35;;;26.20;89.60;;;;;;7406531;19;20478;-72
2023/06/20 08:53:33;;;;;;;13.13;8.02;;;26.20;89.90;;;;;;7387670;19;20019;-74
2023/06/20 08:56:03;;;;;;;11.38;7.55;;;26.20;90.10;;;;;;7384961;19;20052;-74
2023/06/20 08:58:36;;;;;;;21.05;8.10;;;26.20;90.10;;;;;;7384346;19;20007;-74
2023/06/20 09:01:07;;;;;;;18.42;7.65;;;26.10;90.10;;;;;;7389056;19;20014;-74
2023/06/20 09:03:35;;;;;;;20.90;7.50;;;26.10;90.20;;;;;;7384816;19;20007;-76
2023/06/20 09:06:04;;;;;;;19.92;8.10;;;26.10;90.20;;;;;;7406319;19;20295;-76
2023/06/20 09:08:39;;;;;;;12.25;7.28;;;26.20;90.30;;;;;;7387102;19;20002;-76
2023/06/20 09:11:09;;;;;;;17.45;7.88;;;26.20;90.30;;;;;;7388091;19;20002;-75
2023/06/20 09:13:41;;;;;;;14.10;6.82;;;26.20;90.20;;;;;;7387360;19;20296;-75
2023/06/20 09:16:10;;;;;;;12.77;7.63;;;26.30;90.00;;;;;;7385298;19;20007;-77
2023/06/20 09:18:40;;;;;;;18.80;7.32;;;26.40;90.10;;;;;;7387664;19;20010;-77
2023/06/20 09:21:16;;;;;;;12.55;7.32;;;26.40;89.60;;;;;;7414805;19;20088;-76
2023/06/20 09:23:45;;;;;;;11.38;7.20;;;26.50;89.50;;;;;;7383061;19;20010;-73
2023/06/20 09:26:18;;;;;;;12.32;7.18;;;26.50;89.50;;;;;;7387633;19;20015;-75
2023/06/20 09:28:49;;;;;;;11.35;6.88;;;26.60;88.80;;;;;;7391563;19;20019;-75
2023/06/20 09:31:19;;;;;;;14.35;6.38;;;26.70;88.90;;;;;;7387448;19;20011;-74
2023/06/20 09:33:48;;;;;;;12.43;6.25;;;26.60;88.50;;;;;;7382245;19;20010;-76
2023/06/20 09:36:17;;;;;;;13.88;6.40;;;26.70;88.50;;;;;;7404229;19;20685;-76
2023/06/20 09:38:47;;;;;;;12.13;6.30;;;26.70;88.80;;;;;;7382827;19;20014;-76
2023/06/20 09:41:19;;;;;;;11.15;6.97;;;26.80;88.70;;;;;;7382830;19;20391;-74
2023/06/20 09:43:50;;;;;;;15.77;6.72;;;26.90;88.30;;;;;;7382673;19;20011;-74
2023/06/20 09:46:20;;;;;;;8.52;6.38;;;26.90;88.00;;;;;;7383826;19;20013;-75
2023/06/20 09:48:49;;;;;;;11.20;5.88;;;27.00;88.10;;;;;;7383517;19;20015;-76
2023/06/20 09:51:19;;;;;;;8.98;5.43;;;27.10;87.20;;;;;;7404941;19;20007;-76
2023/06/20 09:54:02;;;;;;;7.10;4.90;;;27.10;85.00;;;;;;7381852;19;20031;-75
2023/06/20 09:56:32;;;;;;;7.32;5.20;;;27.20;83.20;;;;;;7382141;19;20028;-76
2023/06/20 09:59:05;;;;;;;9.02;5.00;;;27.30;83.50;;;;;;7382332;19;20014;-75
2023/06/20 10:01:38;;;;;;;9.32;5.05;;;27.30;83.60;;;;;;7381891;19;20002;-75
2023/06/20 10:04:07;;;;;;;11.25;4.78;;;27.30;83.90;;;;;;7382691;19;20047;-75
2023/06/20 10:06:37;;;;;;;11.07;5.00;;;27.40;83.90;;;;;;7382621;19;20292;-75
2023/06/20 10:09:08;;;;;;;8.30;4.95;;;27.50;82.50;;;;;;7403801;19;20018;-74
2023/06/20 10:11:40;;;;;;;10.18;5.28;;;27.50;82.80;;;;;;7382800;19;20384;-79
2023/06/20 10:14:12;;;;;;;9.85;4.63;;;27.50;82.60;;;;;;7382918;19;20023;-76
2023/06/20 10:16:52;;;;;;;13.00;5.15;;;27.50;81.60;;;;;;7387415;19;20370;-78
2023/06/20 10:19:22;;;;;;;12.77;5.25;;;27.50;81.70;;;;;;7385369;19;20379;-73
2023/06/20 10:22:01;;;;;;;7.78;4.95;;;27.60;82.10;;;;;;7383571;19;20697;-74
2023/06/20 10:24:31;;;;;;;10.20;5.13;;;27.60;80.90;;;;;;7381316;19;20010;-74
2023/06/20 10:27:04;;;;;;;11.48;4.47;;;27.60;80.80;;;;;;7403673;19;20019;-72
2023/06/20 10:29:42;;;;;;;6.75;4.40;;;27.70;81.40;;;;;;7381395;19;20011;-73
2023/06/20 10:32:12;;;;;;;8.88;4.82;;;27.60;80.20;;;;;;7384235;19;20038;-73
2023/06/20 10:34:42;;;;;;;11.50;4.35;;;27.70;80.50;;;;;;7385269;19;20054;-73
2023/06/20 10:37:18;;;;;;;5.70;3.97;;;27.70;81.00;;;;;;7384794;19;20007;-73
2023/06/20 10:39:56;;;;;;;6.53;4.38;;;27.70;81.10;;;;;;7380635;19;20011;-73
2023/06/20 10:42:39;;;;;;;7.22;4.38;;;27.80;81.10;;;;;;7381081;19;20366;-74
2023/06/20 10:45:28;;;;;;;7.78;4.88;;;27.90;81.40;;;;;;7402117;19;20013;-74
2023/06/20 10:47:58;;;;;;;13.05;4.50;;;27.90;80.20;;;;;;7380070;19;20067;-73
2023/06/20 10:50:26;;;;;;;8.85;4.20;;;27.90;80.00;;;;;;7379822;19;20010;-72
2023/06/20 10:52:55;;;;;;;8.85;4.80;;;28.00;79.90;;;;;;7380036;19;20080;-72
2023/06/20 10:55:26;;;;;;;7.18;4.40;;;28.00;80.00;;;;;;7380574;19;20311;-73
2023/06/20 10:57:55;;;;;;;8.52;4.10;;;28.00;80.70;;;;;;7381151;19;20019;-74
2023/06/20 11:00:27;;;;;;;5.07;4.00;;;28.00;81.90;;;;;;7380638;19;20024;-74
2023/06/20 11:02:56;;;;;;;5.47;3.95;;;27.90;82.20;;;;;;7401787;19;20027;-74
2023/06/20 11:05:30;;;;;;;11.10;4.82;;;27.90;82.70;;;;;;7375927;19;20009;-73
2023/06/20 11:08:01;;;;;;;10.07;4.25;;;27.80;82.10;;;;;;7380272;19;20006;-74
2023/06/20 11:10:31;;;;;;;8.52;4.28;;;27.80;82.00;;;;;;7380670;19;20102;-73
2023/06/20 11:13:02;;;;;;;14.07;10.27;;;27.80;81.90;;;;;;7380842;19;20019;-76
2023/06/20 11:15:34;;;;;;;11.35;4.60;;;27.80;81.90;;;;;;7379636;19;20350;-76
2023/06/20 11:18:05;;;;;;;10.25;4.80;;;27.80;82.40;;;;;;7402582;19;20245;-76
2023/06/20 11:20:36;;;;;;;7.18;3.95;;;27.90;82.10;;;;;;7382799;19;20003;-75
2023/06/20 11:23:06;;;;;;;11.13;4.40;;;28.00;81.40;;;;;;7384648;19;20066;-74
2023/06/20 11:25:36;;;;;;;8.03;4.70;;;28.10;80.60;;;;;;7382700;19;20002;-75
2023/06/20 11:28:09;;;;;;;7.32;4.93;;;28.10;80.40;;;;;;7380486;19;20373;-75
2023/06/20 11:30:42;;;;;;;10.15;4.85;;;28.10;81.40;;;;;;7380657;19;20007;-73
2023/06/20 11:33:13;;;;;;;19.15;5.07;;;28.20;80.70;;;;;;7401106;19;20010;-73
2023/06/20 11:35:46;;;;;;;6.38;4.55;;;28.20;80.00;;;;;;7379713;19;20026;-74
2023/06/20 11:38:16;;;;;;;13.10;4.78;;;28.10;79.70;;;;;;7381587;19;20055;-76
2023/06/20 11:40:46;;;;;;;8.40;5.63;;;28.20;80.80;;;;;;7384079;19;20010;-75
2023/06/20 11:43:27;;;;;;;7.07;5.20;;;28.20;79.50;;;;;;7386378;19;20007;-75
2023/06/20 11:46:03;;;;;;;8.23;5.07;;;28.30;79.40;;;;;;7380515;19;20027;-74
2023/06/20 11:48:32;;;;;;;8.30;5.20;;;28.40;79.30;;;;;;7379411;19;20006;-74
2023/06/20 11:51:02;;;;;;;8.20;5.60;;;28.40;78.60;;;;;;7398477;19;20006;-73
2023/06/20 11:53:34;;;;;;;8.13;5.60;;;28.20;77.70;;;;;;7378466;19;20028;-74
2023/06/20 11:56:06;;;;;;;10.05;5.30;;;28.30;77.90;;;;;;7378932;19;20390;-73
2023/06/20 11:58:42;;;;;;;15.10;5.65;;;28.30;78.20;;;;;;7379974;19;20013;-73
2023/06/20 12:01:19;;;;;;;10.25;4.75;;;28.40;78.60;;;;;;7378124;19;20025;-73
2023/06/20 12:03:48;;;;;;;6.40;4.93;;;28.50;78.20;;;;;;7379743;19;20084;-74
2023/06/20 12:06:30;;;;;;;7.57;5.30;;;28.70;78.40;;;;;;7398586;19;20010;-75
2023/06/20 12:09:00;;;;;;;9.48;5.22;;;28.80;77.50;;;;;;7377945;19;20342;-75
2023/06/20 12:11:30;;;;;;;10.95;5.43;;;28.90;77.40;;;;;;7377762;19;20010;-75
2023/06/20 12:13:58;;;;;;;16.85;5.30;;;29.00;77.20;;;;;;7377554;19;20014;-74
2023/06/20 12:16:31;;;;;;;7.38;4.75;;;29.10;77.20;;;;;;7384163;19;20007;-74
2023/06/20 12:19:02;;;;;;;8.73;5.20;;;29.20;76.60;;;;;;7387306;19;20011;-74
2023/06/20 12:21:31;;;;;;;11.80;4.70;;;29.10;75.50;;;;;;7388990;19;20054;-74
2023/06/20 12:24:00;;;;;;;9.48;5.88;;;29.10;76.20;;;;;;7410845;19;20070;-73
2023/06/20 12:26:28;;;;;;;7.82;5.00;;;29.00;75.70;;;;;;7389097;19;20044;-73
2023/06/20 12:28:57;;;;;;;8.60;5.15;;;29.00;76.60;;;;;;7390045;19;20019;-73
2023/06/20 12:31:28;;;;;;;12.95;5.22;;;29.10;77.00;;;;;;7390412;19;19999;-74
2023/06/20 12:33:57;;;;;;;13.55;5.50;;;29.20;76.10;;;;;;7387735;19;20023;-72
2023/06/20 12:36:26;;;;;;;9.27;5.32;;;29.20;75.30;;;;;;7383416;19;20026;-73
2023/06/20 12:38:55;;;;;;;6.43;4.90;;;29.20;76.00;;;;;;7407851;19;20023;-73
2023/06/20 12:41:24;;;;;;;7.88;5.10;;;29.20;76.00;;;;;;7384202;19;20052;-72
2023/06/20 12:43:52;;;;;;;8.02;4.88;;;29.30;74.90;;;;;;7386358;19;20010;-72
2023/06/20 12:46:21;;;;;;;7.82;5.18;;;29.30;75.00;;;;;;7387983;19;20007;-72
2023/06/20 12:48:53;;;;;;;6.25;4.75;;;29.20;74.90;;;;;;7389290;19;20023;-73
2023/06/20 12:51:21;;;;;;;12.55;5.28;;;29.20;75.20;;;;;;7412598;19;20017;-72
2023/06/20 12:53:51;;;;;;;15.15;5.38;;;29.20;74.50;;;;;;7407918;19;20074;-72
2023/06/20 12:56:22;;;;;;;9.95;5.38;;;29.20;74.90;;;;;;7385547;19;20382;-73
2023/06/20 12:58:51;;;;;;;14.13;5.43;;;29.30;75.20;;;;;;7385259;19;20002;-74